createdAt,value
2022-10-02T00:02:26.362Z,99731.87
2022-10-02T00:04:58.301Z,99742.27
2022-10-02T00:07:45.309Z,99750.02
2022-10-02T00:10:23.775Z,99754.83
2022-10-02T00:13:01.011Z,99768.10
2022-10-02T00:15:35.302Z,99766.80
2022-10-02T00:18:12.222Z,99768.17
2022-10-02T00:21:00.517Z,99779.60
2022-10-02T00:23:38.139Z,99771.20
2022-10-02T00:26:07.269Z,99774.06
2022-10-02T00:28:52.825Z,99774.59
2022-10-02T00:31:31.572Z,99773.75
2022-10-02T00:34:23.448Z,99772.08
2022-10-02T00:40:16.852Z,99777.44
2022-10-02T00:43:12.257Z,99777.48
2022-10-02T00:45:54.765Z,99781.52
2022-10-02T00:48:26.506Z,99783.16
2022-10-02T00:51:07.508Z,99785.88
2022-10-02T00:54:15.834Z,99786.92
2022-10-02T00:57:06.217Z,99787.84
2022-10-02T00:59:51.876Z,99793.62
2022-10-02T01:02:24.742Z,99795.77
2022-10-02T01:04:54.813Z,99802.54
2022-10-02T01:07:23.976Z,99808.61
2022-10-02T01:09:54.138Z,99812.06
2022-10-02T01:12:24.538Z,99817.09
2022-10-02T01:14:53.841Z,99817.98
2022-10-02T01:17:35.282Z,99818.77
2022-10-02T01:20:07.568Z,99825.71
2022-10-02T01:22:53.149Z,99829.46
2022-10-02T01:25:24.653Z,99831.45
2022-10-02T01:27:54.893Z,99830.55
2022-10-02T01:30:24.229Z,99828.29
2022-10-02T01:32:57.002Z,99827.98
2022-10-02T01:35:32.636Z,99831.02
2022-10-02T01:38:07.596Z,99833.02
2022-10-02T01:40:40.696Z,99832.76
2022-10-02T01:43:45.104Z,99837.44
2022-10-02T01:46:20.078Z,99838.23
2022-10-02T01:49:28.671Z,99843.13
2022-10-02T01:52:10.140Z,99855.48
2022-10-02T01:54:51.132Z,99857.06
2022-10-02T01:57:41.918Z,99860.08
2022-10-02T02:00:18.375Z,99863.75
2022-10-02T02:03:14.732Z,99871.08
2022-10-02T02:06:00.198Z,99873.99
2022-10-02T02:08:42.375Z,99877.77
2022-10-02T02:11:31.627Z,99882.05
2022-10-02T02:14:47.746Z,99886.77
2022-10-02T02:17:24.336Z,99891.89
2022-10-02T02:20:10.732Z,99899.34
2022-10-02T02:22:50.274Z,99901.14
2022-10-02T02:25:28.380Z,99903.34
2022-10-02T02:28:02.058Z,99908.85
2022-10-02T02:30:34.479Z,99903.63
2022-10-02T02:33:11.362Z,99910.10
2022-10-02T02:35:48.983Z,99915.04
2022-10-02T02:38:32.214Z,99917.06
2022-10-02T02:41:07.610Z,99921.84
2022-10-02T02:43:44.623Z,99919.48
2022-10-02T02:46:25.763Z,99919.13
2022-10-02T02:49:07.768Z,99921.83
2022-10-02T02:51:43.513Z,99924.10
2022-10-02T02:54:18.223Z,99918.42
2022-10-02T02:56:49.271Z,99925.11
2022-10-02T02:59:19.181Z,99919.89
2022-10-02T03:01:47.407Z,99927.45
2022-10-02T03:04:15.845Z,99932.70
2022-10-02T03:06:52.591Z,99935.27
2022-10-02T03:09:22.131Z,99938.95
2022-10-02T03:12:08.723Z,99939.36
2022-10-02T03:14:51.862Z,99942.00
2022-10-02T03:17:31.517Z,99943.23
2022-10-02T03:20:11.858Z,99946.44
2022-10-02T03:22:50.116Z,99944.27
2022-10-02T03:25:48.866Z,99947.20
2022-10-02T03:28:50.514Z,99949.54
2022-10-02T03:31:16.016Z,99952.48
2022-10-02T03:33:46.212Z,99954.83
2022-10-02T03:36:18.111Z,99959.50
2022-10-02T03:38:56.857Z,99958.25
2022-10-02T03:41:34.535Z,99962.55
2022-10-02T03:44:02.699Z,99968.52
2022-10-02T03:46:31.085Z,99967.39
2022-10-02T03:49:01.910Z,99970.71
2022-10-02T03:51:30.726Z,99971.08
2022-10-02T03:53:59.083Z,99971.54
2022-10-02T03:56:41.634Z,99961.52
2022-10-02T03:59:34.658Z,99969.51
2022-10-02T04:02:07.881Z,99968.65
2022-10-02T04:04:51.542Z,99968.52
2022-10-02T04:07:26.302Z,99969.92
2022-10-02T04:10:07.558Z,99972.91
2022-10-02T04:12:41.195Z,99973.08
2022-10-02T04:15:21.548Z,99976.16
2022-10-02T04:17:59.150Z,99977.69
2022-10-02T04:20:37.424Z,99975.98
2022-10-02T04:23:28.346Z,99974.45
2022-10-02T04:26:23.370Z,99975.47
2022-10-02T04:28:57.759Z,99983.08
2022-10-02T04:31:28.894Z,99989.56
2022-10-02T04:34:02.955Z,99991.41
2022-10-02T04:36:49.239Z,99993.85
2022-10-02T04:39:41.547Z,99996.23
2022-10-02T04:42:22.847Z,99998.99
2022-10-02T04:44:50.931Z,100000.84
2022-10-02T04:47:38.076Z,99998.56
2022-10-02T04:50:12.678Z,100007.96
2022-10-02T04:53:12.394Z,100008.17
2022-10-02T04:56:05.865Z,100011.57
2022-10-02T04:58:47.042Z,100012.25
2022-10-02T05:01:15.357Z,100010.70
2022-10-02T05:04:04.422Z,100011.23
2022-10-02T05:06:54.471Z,100015.14
2022-10-02T05:09:33.595Z,100013.42
2022-10-02T05:12:11.095Z,100016.40
2022-10-02T05:14:59.838Z,100013.65
2022-10-02T05:17:37.041Z,100012.20
2022-10-02T05:20:48.333Z,100003.29
2022-10-02T05:23:19.261Z,100009.98
2022-10-02T05:26:14.393Z,100020.21
2022-10-02T05:28:45.709Z,100018.67
2022-10-02T05:31:13.942Z,100020.63
2022-10-02T05:34:05.096Z,100023.45
2022-10-02T05:36:52.318Z,100020.23
2022-10-02T05:39:33.809Z,100024.38
2022-10-02T05:42:16.004Z,100021.63
2022-10-02T05:44:51.044Z,100005.54
2022-10-02T05:47:35.912Z,100025.05
2022-10-02T05:50:28.048Z,100026.05
2022-10-02T05:53:06.346Z,100030.98
2022-10-02T05:55:53.772Z,100033.54
2022-10-02T05:58:31.478Z,100029.20
2022-10-02T06:01:09.130Z,100025.16
2022-10-02T06:03:47.045Z,100026.71
2022-10-02T06:06:20.993Z,100032.60
2022-10-02T06:08:58.992Z,100032.28
2022-10-02T06:12:02.405Z,100034.54
2022-10-02T06:14:38.320Z,100038.60
2022-10-02T06:17:14.055Z,100037.27
2022-10-02T06:19:54.789Z,100038.30
2022-10-02T06:22:44.775Z,100040.25
2022-10-02T06:25:24.966Z,100037.57
2022-10-02T06:28:36.104Z,100042.40
2022-10-02T06:31:30.985Z,100046.55
2022-10-02T06:34:00.868Z,100047.63
2022-10-02T06:36:53.531Z,100051.33
2022-10-02T06:39:47.998Z,100051.65
2022-10-02T06:43:07.572Z,100055.15
2022-10-02T06:46:05.887Z,100058.17
2022-10-02T06:48:59.481Z,100051.83
2022-10-02T06:51:35.856Z,100050.49
2022-10-02T06:54:24.808Z,100059.80
2022-10-02T06:57:12.962Z,100049.10
2022-10-02T06:59:51.283Z,100059.35
2022-10-02T07:02:44.631Z,100055.33
2022-10-02T07:05:49.005Z,100055.20
2022-10-02T07:08:38.594Z,100058.84
2022-10-02T07:11:27.091Z,100050.21
2022-10-02T07:14:28.839Z,100060.87
2022-10-02T07:17:23.746Z,100062.28
2022-10-02T07:20:16.474Z,100060.21
2022-10-02T07:23:27.606Z,100064.16
2022-10-02T07:26:34.399Z,100066.21
2022-10-02T07:29:21.152Z,100068.05
2022-10-02T07:31:59.448Z,100068.52
2022-10-02T07:34:52.774Z,100064.00
2022-10-02T07:37:44.958Z,100068.66
2022-10-02T07:40:22.276Z,100072.11
2022-10-02T07:43:06.506Z,100069.71
2022-10-02T07:45:42.488Z,100076.55
2022-10-02T07:48:17.290Z,100082.63
2022-10-02T07:51:36.096Z,100077.35
2022-10-02T07:54:42.055Z,100078.48
2022-10-02T07:57:39.694Z,100075.75
2022-10-02T08:00:16.915Z,100077.93
2022-10-02T08:03:04.525Z,100077.18
2022-10-02T08:05:41.698Z,100072.89
2022-10-02T08:08:39.436Z,100068.44
2022-10-02T08:11:30.764Z,100064.35
2022-10-02T08:14:02.618Z,100071.06
2022-10-02T08:16:40.284Z,100073.70
2022-10-02T08:19:32.945Z,100072.20
2022-10-02T08:22:48.249Z,100074.10
2022-10-02T08:25:28.474Z,100070.12
2022-10-02T08:28:50.070Z,100063.35
2022-10-02T08:31:19.393Z,100048.36
2022-10-02T08:33:54.112Z,100049.56
2022-10-02T08:36:55.386Z,100049.75
2022-10-02T08:40:19.071Z,100042.26
2022-10-02T08:43:19.701Z,100037.64
2022-10-02T08:45:58.273Z,100042.69
2022-10-02T08:49:15.020Z,100039.70
2022-10-02T08:52:15.768Z,100032.67
2022-10-02T08:55:12.967Z,100042.61
2022-10-02T08:58:07.778Z,100030.81
2022-10-02T09:01:06.143Z,100034.97
2022-10-02T09:04:23.748Z,100029.79
2022-10-02T09:07:16.729Z,100027.58
2022-10-02T09:10:20.769Z,100020.14
2022-10-02T09:13:19.779Z,100027.45
2022-10-02T09:16:14.398Z,100033.17
2022-10-02T09:19:12.639Z,100028.15
2022-10-02T09:22:11.247Z,100023.89
2022-10-02T09:24:56.773Z,100029.36
2022-10-02T09:27:48.737Z,100023.00
2022-10-02T09:30:58.929Z,100031.80
2022-10-02T09:33:53.700Z,100025.60
2022-10-02T09:36:57.829Z,100024.12
2022-10-02T09:39:54.937Z,100015.85
2022-10-02T09:42:59.143Z,100018.73
2022-10-02T09:45:54.918Z,100021.06
2022-10-02T09:48:32.872Z,100020.33
2022-10-02T09:51:40.426Z,100027.03
2022-10-02T09:54:28.282Z,100029.25
2022-10-02T09:57:36.055Z,100026.23
2022-10-02T10:00:32.443Z,100025.98
2022-10-02T10:03:37.709Z,100030.04
2022-10-02T10:06:29.013Z,100029.64
2022-10-02T10:09:37.108Z,100024.30
2022-10-02T10:12:25.798Z,100021.09
2022-10-02T10:15:08.653Z,100015.52
2022-10-02T10:18:13.439Z,100013.21
2022-10-02T10:21:32.340Z,100008.98
2022-10-02T10:24:37.071Z,100001.64
2022-10-02T10:27:33.094Z,100001.14
2022-10-02T10:30:11.748Z,100003.33
2022-10-02T10:33:08.734Z,100006.30
2022-10-02T10:35:38.676Z,100003.42
2022-10-02T10:38:26.935Z,99998.34
2022-10-02T10:41:25.414Z,99996.66
2022-10-02T10:44:25.742Z,99988.32
2022-10-02T10:46:59.837Z,99983.46
2022-10-02T10:49:43.034Z,99978.12
2022-10-02T10:52:42.229Z,99980.29
2022-10-02T10:55:31.318Z,99979.95
2022-10-02T10:58:34.111Z,99970.86
2022-10-02T11:01:19.854Z,99970.03
2022-10-02T11:04:26.554Z,99968.94
2022-10-02T11:07:21.246Z,99968.23
2022-10-02T11:10:16.966Z,99958.48
2022-10-02T11:12:52.266Z,99963.31
2022-10-02T11:15:21.285Z,99961.27
2022-10-02T11:18:03.207Z,99948.80
2022-10-02T11:20:59.915Z,99955.05
2022-10-02T11:23:41.503Z,99956.05
2022-10-02T11:26:22.567Z,99948.98
2022-10-02T11:28:54.233Z,99953.96
2022-10-02T11:31:42.627Z,99945.95
2022-10-02T11:34:33.672Z,99949.89
2022-10-02T11:37:14.379Z,99951.63
2022-10-02T11:40:30.877Z,99956.28
2022-10-02T11:43:15.079Z,99950.05
2022-10-02T11:46:04.651Z,99945.66
2022-10-02T11:48:55.085Z,99939.23
2022-10-02T11:51:35.461Z,99942.36
2022-10-02T11:54:19.959Z,99944.15
2022-10-02T11:57:07.462Z,99958.08
2022-10-02T12:00:08.228Z,99959.78
2022-10-02T12:03:25.518Z,99963.94
2022-10-02T12:06:18.602Z,99967.33
2022-10-02T12:09:22.371Z,99981.84
2022-10-02T12:12:00.375Z,99996.64
2022-10-02T12:15:10.671Z,100007.28
2022-10-02T12:17:55.813Z,100004.44
2022-10-02T12:20:59.969Z,99997.64
2022-10-02T12:23:53.504Z,99995.53
2022-10-02T12:27:11.316Z,100013.34
2022-10-02T12:30:09.836Z,100008.09
2022-10-02T12:33:16.016Z,99998.46
2022-10-02T12:35:51.400Z,99981.40
2022-10-02T12:38:40.838Z,99976.73
2022-10-02T12:41:49.220Z,99987.20
2022-10-02T12:44:59.292Z,99967.87
2022-10-02T12:47:38.618Z,99961.99
2022-10-02T12:50:31.477Z,99963.01
2022-10-02T12:53:40.170Z,99959.91
2022-10-02T12:56:49.520Z,99951.77
2022-10-02T13:00:05.380Z,99949.77
2022-10-02T13:03:01.608Z,99953.10
2022-10-02T13:06:05.122Z,99956.48
2022-10-02T13:09:23.600Z,99955.00
2022-10-02T13:12:28.469Z,99952.91
2022-10-02T13:15:19.507Z,99946.30
2022-10-02T13:18:18.033Z,99936.30
2022-10-02T13:21:12.924Z,99928.98
2022-10-02T13:24:13.875Z,99926.34
2022-10-02T13:27:05.213Z,99917.10
2022-10-02T13:29:50.058Z,99912.04
2022-10-02T13:32:42.572Z,99904.39
2022-10-02T13:35:39.780Z,99902.55
2022-10-02T13:38:30.321Z,99900.42
2022-10-02T13:41:09.114Z,99892.67
2022-10-02T13:44:18.447Z,99888.23
2022-10-02T13:47:38.437Z,99881.33
2022-10-02T13:50:49.311Z,99884.66
2022-10-02T13:53:58.630Z,99875.86
2022-10-02T13:56:44.401Z,99868.81
2022-10-02T13:59:26.240Z,99869.16
2022-10-02T14:02:05.284Z,99858.85
2022-10-02T14:04:51.131Z,99854.71
2022-10-02T14:07:31.373Z,99851.05
2022-10-02T14:10:33.115Z,99853.06
2022-10-02T14:13:27.103Z,99852.14
2022-10-02T14:16:17.747Z,99849.36
2022-10-02T14:19:09.360Z,99843.01
2022-10-02T14:22:20.111Z,99849.77
2022-10-02T14:25:24.038Z,99849.25
2022-10-02T14:28:12.305Z,99854.25
2022-10-02T14:31:26.437Z,99855.48
2022-10-02T14:34:27.075Z,99858.00
2022-10-02T14:37:19.741Z,99856.15
2022-10-02T14:39:50.789Z,99857.68
2022-10-02T14:42:22.821Z,99855.34
2022-10-02T14:44:57.517Z,99859.54
2022-10-02T14:47:47.806Z,99856.62
2022-10-02T14:50:28.378Z,99854.94
2022-10-02T14:53:26.894Z,99858.54
2022-10-02T14:56:21.921Z,99857.02
2022-10-02T14:59:28.916Z,99855.38
2022-10-02T15:02:11.156Z,99864.90
2022-10-02T15:05:13.279Z,99861.64
2022-10-02T15:07:43.986Z,99883.00
2022-10-02T15:10:19.978Z,99895.45
2022-10-02T15:13:12.637Z,99882.70
2022-10-02T15:16:31.785Z,99878.94
2022-10-02T15:19:10.010Z,99884.86
2022-10-02T15:22:07.064Z,99873.84
2022-10-02T15:24:50.715Z,99878.18
2022-10-02T15:28:34.709Z,99873.27
2022-10-02T15:31:31.052Z,99876.74
2022-10-02T15:34:15.621Z,99883.52
2022-10-02T15:37:09.099Z,99887.35
2022-10-02T15:39:44.549Z,99890.65
2022-10-02T15:42:37.715Z,99891.46
2022-10-02T15:45:26.434Z,99895.92
2022-10-02T15:48:25.029Z,99896.63
2022-10-02T15:51:21.050Z,99897.50
2022-10-02T15:54:23.448Z,99905.55
2022-10-02T15:57:24.457Z,99907.27
2022-10-02T16:00:22.070Z,99913.64
2022-10-02T16:03:18.896Z,99917.50
2022-10-02T16:06:20.349Z,99921.27
2022-10-02T16:08:59.812Z,99922.95
2022-10-02T16:11:47.826Z,99924.39
2022-10-02T16:14:51.404Z,99916.95
2022-10-02T16:17:57.592Z,99922.98
2022-10-02T16:20:39.710Z,99925.60
2022-10-02T16:23:29.340Z,99928.08
2022-10-02T16:26:21.148Z,99931.14
2022-10-02T16:29:02.891Z,99929.25
2022-10-02T16:31:48.459Z,99931.43
2022-10-02T16:34:30.793Z,99936.33
2022-10-02T16:37:22.472Z,99933.21
2022-10-02T16:40:01.634Z,99938.11
2022-10-02T16:43:18.409Z,99938.33
2022-10-02T16:46:11.453Z,99940.83
2022-10-02T16:48:51.568Z,99945.57
2022-10-02T16:51:51.275Z,99950.95
2022-10-02T16:54:25.435Z,99953.30
2022-10-02T16:57:06.189Z,99956.83
2022-10-02T17:00:15.545Z,99958.77
2022-10-02T17:02:54.362Z,99953.99
2022-10-02T17:05:35.405Z,99951.87
2022-10-02T17:08:30.602Z,99960.08
2022-10-02T17:11:18.031Z,99969.16
2022-10-02T17:14:06.480Z,99966.52
2022-10-02T17:16:57.067Z,99971.95
2022-10-02T17:19:35.497Z,99974.79
2022-10-02T17:22:15.438Z,99977.06
2022-10-02T17:24:54.615Z,99974.27
2022-10-02T17:27:51.330Z,99974.02
2022-10-02T17:30:27.814Z,99981.58
2022-10-02T17:33:27.382Z,99984.03
2022-10-02T17:36:14.003Z,99983.09
2022-10-02T17:39:25.840Z,99986.63
2022-10-02T17:42:33.163Z,99987.45
2022-10-02T17:45:20.150Z,99981.79
2022-10-02T17:48:25.308Z,99987.94
2022-10-02T17:51:31.304Z,99994.08
2022-10-02T17:54:53.845Z,99998.02
2022-10-02T17:57:43.750Z,99999.41
2022-10-02T18:00:20.837Z,99998.88
2022-10-02T18:03:10.282Z,100001.38
2022-10-02T18:05:59.633Z,100003.60
2022-10-02T18:08:46.642Z,100004.06
2022-10-02T18:11:40.662Z,100005.13
2022-10-02T18:14:36.900Z,100008.60
2022-10-02T18:17:06.809Z,100010.84
2022-10-02T18:19:53.722Z,100008.70
2022-10-02T18:22:42.174Z,100011.98
2022-10-02T18:25:38.512Z,100010.92
2022-10-02T18:28:27.150Z,100013.47
2022-10-02T18:31:54.093Z,100011.85
2022-10-02T18:34:43.566Z,100011.89
2022-10-02T18:37:36.240Z,100015.50
2022-10-02T18:40:49.990Z,100016.98
2022-10-02T18:43:47.908Z,100015.67
2022-10-02T18:46:22.755Z,100015.70
2022-10-02T18:49:20.498Z,100017.00
2022-10-02T18:51:49.329Z,100019.86
2022-10-02T18:54:31.434Z,100022.00
2022-10-02T18:57:09.302Z,100025.21
2022-10-02T19:00:13.198Z,100025.27
2022-10-02T19:03:16.077Z,100026.48
2022-10-02T19:06:11.018Z,100028.34
2022-10-02T19:08:58.380Z,100035.52
2022-10-02T19:11:44.449Z,100037.73
2022-10-02T19:14:23.708Z,100038.39
2022-10-02T19:17:00.657Z,100038.80
2022-10-02T19:19:33.477Z,100044.95
2022-10-02T19:22:31.981Z,100049.26
2022-10-02T19:25:14.849Z,100049.71
2022-10-02T19:27:56.983Z,100045.33
2022-10-02T19:30:31.347Z,100055.99
2022-10-02T19:33:10.020Z,100064.39
2022-10-02T19:35:43.503Z,100066.06
2022-10-02T19:38:17.016Z,100071.27
2022-10-02T19:40:53.831Z,100067.48
2022-10-02T19:43:34.774Z,100074.52
2022-10-02T19:46:10.132Z,100078.72
2022-10-02T19:48:41.106Z,100076.23
2022-10-02T19:51:22.814Z,100072.58
2022-10-02T19:54:02.599Z,100075.17
2022-10-02T19:56:43.632Z,100072.23
2022-10-02T19:59:24.633Z,100070.81
2022-10-02T20:01:57.280Z,100068.73
2022-10-02T20:04:33.240Z,100070.02
2022-10-02T20:07:05.849Z,100064.52
2022-10-02T20:09:44.976Z,100078.48
2022-10-02T20:12:19.106Z,100079.45
2022-10-02T20:14:54.581Z,100080.69
2022-10-02T20:17:24.418Z,100083.88
2022-10-02T20:19:58.432Z,100082.60
2022-10-02T20:22:38.905Z,100090.88
2022-10-02T20:25:17.014Z,100087.05
2022-10-02T20:27:59.193Z,100095.20
2022-10-02T20:30:43.675Z,100095.63
2022-10-02T20:33:44.929Z,100099.30
2022-10-02T20:36:26.777Z,100104.02
2022-10-02T20:39:27.849Z,100103.18
2022-10-02T20:42:37.091Z,100108.69
2022-10-02T20:45:18.500Z,100108.89
2022-10-02T20:47:55.435Z,100110.45
2022-10-02T20:50:41.125Z,100116.71
2022-10-02T20:53:19.783Z,100118.08
2022-10-02T20:56:07.123Z,100105.75
2022-10-02T20:59:03.289Z,100130.45
2022-10-02T21:01:46.632Z,100128.38
2022-10-02T21:04:43.373Z,100129.80
2022-10-02T21:07:26.863Z,100131.43
2022-10-02T21:10:08.712Z,100139.70
2022-10-02T21:13:16.791Z,100141.86
2022-10-02T21:15:52.183Z,100138.11
2022-10-02T21:18:36.310Z,100146.48
2022-10-02T21:21:33.266Z,100146.68
2022-10-02T21:24:38.390Z,100144.57
2022-10-02T21:27:20.784Z,100147.60
2022-10-02T21:30:17.503Z,100151.78
2022-10-02T21:32:51.556Z,100150.30
2022-10-02T21:35:42.770Z,100153.06
2022-10-02T21:38:36.233Z,100151.75
2022-10-02T21:41:29.403Z,100154.94
2022-10-02T21:44:46.590Z,100151.59
2022-10-02T21:47:37.533Z,100138.75
2022-10-02T21:50:28.633Z,100154.14
2022-10-02T21:53:16.261Z,100148.34
2022-10-02T21:56:12.859Z,100152.95
2022-10-02T21:59:03.131Z,100155.80
2022-10-02T22:01:42.682Z,100156.20
2022-10-02T22:04:51.462Z,100146.55
2022-10-02T22:07:21.729Z,100163.19
2022-10-02T22:10:02.469Z,100161.31
2022-10-02T22:12:45.936Z,100162.92
2022-10-02T22:15:41.926Z,100165.27
2022-10-02T22:18:31.461Z,100165.50
2022-10-02T22:21:15.521Z,100164.81
2022-10-02T22:24:11.649Z,100165.17
2022-10-02T22:27:02.264Z,100166.02
2022-10-02T22:29:50.954Z,100164.52
2022-10-02T22:32:40.504Z,100165.89
2022-10-02T22:35:43.046Z,100162.69
2022-10-02T22:38:36.117Z,100165.41
2022-10-02T22:41:06.877Z,100169.70
2022-10-02T22:43:58.984Z,100170.67
2022-10-02T22:46:35.704Z,100175.73
2022-10-02T22:49:13.661Z,100176.27
2022-10-02T22:52:01.017Z,100176.65
2022-10-02T22:54:47.802Z,100176.39
2022-10-02T22:57:33.377Z,100173.07
2022-10-02T23:00:18.043Z,100175.39
2022-10-02T23:02:51.487Z,100172.20
2022-10-02T23:05:23.296Z,100167.13
2022-10-02T23:07:57.524Z,100168.42
2022-10-02T23:10:38.198Z,100168.98
2022-10-02T23:13:22.370Z,100171.09
2022-10-02T23:15:53.510Z,100170.39
2022-10-02T23:18:21.640Z,100169.31
2022-10-02T23:21:02.708Z,100168.71
2022-10-02T23:24:08.692Z,100169.27
2022-10-02T23:26:54.966Z,100170.92
2022-10-02T23:29:47.837Z,100169.76
2022-10-02T23:32:31.665Z,100171.53
2022-10-02T23:35:05.798Z,100173.15
2022-10-02T23:37:52.718Z,100180.46
2022-10-02T23:41:18.257Z,100184.09
2022-10-02T23:44:19.160Z,100181.54
2022-10-02T23:46:50.410Z,100188.72
2022-10-02T23:49:22.376Z,100186.98
2022-10-02T23:52:17.944Z,100180.45
2022-10-02T23:54:53.138Z,100180.23
2022-10-02T23:57:24.096Z,100177.14
